sensor_id;sensor_type;location;lat;lon;timestamp;pressure;altitude;pressure_sealevel;temperature;humidity
71915;BME280;60387;49.994;14.660;2022-09-29T00:01:11;96268.28;;;8.52;67.60
71915;BME280;60387;49.994;14.660;2022-09-29T00:03:45;96275.25;;;8.62;67.03
71915;BME280;60387;49.994;14.660;2022-09-29T00:06:18;96273.38;;;8.54;66.37
71915;BME280;60387;49.994;14.660;2022-09-29T00:08:51;96279.69;;;8.58;66.43
71915;BME280;60387;49.994;14.660;2022-09-29T00:11:24;96277.94;;;8.53;67.16
71915;BME280;60387;49.994;14.660;2022-09-29T00:13:58;96277.34;;;8.48;66.74
71915;BME280;60387;49.994;14.660;2022-09-29T00:16:31;96270.88;;;8.40;67.27
71915;BME280;60387;49.994;14.660;2022-09-29T00:19:04;96273.06;;;8.38;66.61
71915;BME280;60387;49.994;14.660;2022-09-29T00:21:37;96272.16;;;8.34;66.69
71915;BME280;60387;49.994;14.660;2022-09-29T00:24:11;96282.78;;;8.31;66.55
71915;BME280;60387;49.994;14.660;2022-09-29T00:26:44;96273.13;;;8.21;67.30
71915;BME280;60387;49.994;14.660;2022-09-29T00:29:17;96268.34;;;8.18;67.40
71915;BME280;60387;49.994;14.660;2022-09-29T00:31:51;96275.50;;;8.14;67.45
71915;BME280;60387;49.994;14.660;2022-09-29T00:34:24;96282.78;;;8.14;68.30
71915;BME280;60387;49.994;14.660;2022-09-29T00:36:57;96287.56;;;8.08;68.26
71915;BME280;60387;49.994;14.660;2022-09-29T00:39:31;96285.81;;;8.04;69.26
71915;BME280;60387;49.994;14.660;2022-09-29T00:42:04;96287.56;;;8.00;68.97
71915;BME280;60387;49.994;14.660;2022-09-29T00:47:34;96285.81;;;7.95;68.35
71915;BME280;60387;49.994;14.660;2022-09-29T00:50:15;96277.28;;;7.93;68.15
71915;BME280;60387;49.994;14.660;2022-09-29T00:52:53;96276.00;;;7.91;67.77
71915;BME280;60387;49.994;14.660;2022-09-29T00:55:35;96287.41;;;7.96;69.38
71915;BME280;60387;49.994;14.660;2022-09-29T00:58:34;96292.34;;;7.94;70.17
71915;BME280;60387;49.994;14.660;2022-09-29T01:01:11;96289.97;;;7.93;69.11
71915;BME280;60387;49.994;14.660;2022-09-29T01:03:46;96282.50;;;7.90;68.74
71915;BME280;60387;49.994;14.660;2022-09-29T01:06:28;96290.44;;;7.95;68.90
71915;BME280;60387;49.994;14.660;2022-09-29T01:09:05;96287.75;;;7.95;68.95
71915;BME280;60387;49.994;14.660;2022-09-29T01:11:39;96289.63;;;7.94;68.85
71915;BME280;60387;49.994;14.660;2022-09-29T01:14:12;96280.28;;;7.92;69.11
71915;BME280;60387;49.994;14.660;2022-09-29T01:16:46;96287.41;;;7.96;68.55
71915;BME280;60387;49.994;14.660;2022-09-29T01:19:32;96280.44;;;7.95;68.88
71915;BME280;60387;49.994;14.660;2022-09-29T01:22:40;96293.91;;;7.95;68.60
71915;BME280;60387;49.994;14.660;2022-09-29T01:28:24;96299.00;;;7.97;70.01
71915;BME280;60387;49.994;14.660;2022-09-29T01:31:17;96295.50;;;7.96;69.53
71915;BME280;60387;49.994;14.660;2022-09-29T01:34:20;96305.19;;;7.97;69.19
71915;BME280;60387;49.994;14.660;2022-09-29T01:37:18;96294.41;;;7.97;68.48
71915;BME280;60387;49.994;14.660;2022-09-29T01:40:12;96304.84;;;7.99;68.66
71915;BME280;60387;49.994;14.660;2022-09-29T01:43:08;96292.50;;;7.98;68.04
71915;BME280;60387;49.994;14.660;2022-09-29T01:46:23;96289.78;;;7.98;69.31
71915;BME280;60387;49.994;14.660;2022-09-29T01:48:59;96290.28;;;7.91;68.82
71915;BME280;60387;49.994;14.660;2022-09-29T01:51:40;96287.44;;;7.88;69.27
71915;BME280;60387;49.994;14.660;2022-09-29T01:54:19;96289.31;;;7.87;69.25
71915;BME280;60387;49.994;14.660;2022-09-29T01:57:06;96284.72;;;7.79;68.42
71915;BME280;60387;49.994;14.660;2022-09-29T01:59:45;96294.25;;;7.77;68.32
71915;BME280;60387;49.994;14.660;2022-09-29T02:02:32;96292.53;;;7.72;68.51
71915;BME280;60387;49.994;14.660;2022-09-29T02:05:28;96288.56;;;7.70;68.25
71915;BME280;60387;49.994;14.660;2022-09-29T02:08:10;96285.38;;;7.68;68.73
71915;BME280;60387;49.994;14.660;2022-09-29T02:10:58;96287.13;;;7.64;68.82
71915;BME280;60387;49.994;14.660;2022-09-29T02:13:44;96285.53;;;7.63;69.35
71915;BME280;60387;49.994;14.660;2022-09-29T02:16:24;96296.63;;;7.61;69.33
71915;BME280;60387;49.994;14.660;2022-09-29T02:19:20;96285.84;;;7.53;68.77
71915;BME280;60387;49.994;14.660;2022-09-29T02:21:54;96295.50;;;7.54;68.49
71915;BME280;60387;49.994;14.660;2022-09-29T02:24:28;96286.31;;;7.46;68.34
71915;BME280;60387;49.994;14.660;2022-09-29T02:27:01;96298.19;;;7.45;68.81
71915;BME280;60387;49.994;14.660;2022-09-29T02:29:35;96295.34;;;7.42;69.33
71915;BME280;60387;49.994;14.660;2022-09-29T02:32:09;96306.44;;;7.40;69.23
71915;BME280;60387;49.994;14.660;2022-09-29T02:34:46;96310.25;;;7.39;69.05
71915;BME280;60387;49.994;14.660;2022-09-29T02:37:39;96302.78;;;7.36;69.56
71915;BME280;60387;49.994;14.660;2022-09-29T02:40:27;96317.03;;;7.37;69.18
71915;BME280;60387;49.994;14.660;2022-09-29T02:43:56;96309.28;;;7.35;69.27
71915;BME280;60387;49.994;14.660;2022-09-29T02:49:19;96306.91;;;7.34;69.10
71915;BME280;60387;49.994;14.660;2022-09-29T02:52:05;96316.09;;;7.33;69.45
71915;BME280;60387;49.994;14.660;2022-09-29T02:55:09;96314.19;;;7.33;69.10
71915;BME280;60387;49.994;14.660;2022-09-29T03:00:27;96317.03;;;7.37;69.52
71915;BME280;60387;49.994;14.660;2022-09-29T03:03:01;96315.63;;;7.39;69.92
71915;BME280;60387;49.994;14.660;2022-09-29T03:05:35;96311.66;;;7.37;69.75
71915;BME280;60387;49.994;14.660;2022-09-29T03:08:08;96314.03;;;7.38;69.31
71915;BME280;60387;49.994;14.660;2022-09-29T03:10:41;96312.78;;;7.44;69.59
71915;BME280;60387;49.994;14.660;2022-09-29T03:13:15;96317.69;;;7.42;69.66
71915;BME280;60387;49.994;14.660;2022-09-29T03:15:48;96317.53;;;7.47;69.41
71915;BME280;60387;49.994;14.660;2022-09-29T03:18:21;96323.88;;;7.51;69.82
71915;BME280;60387;49.994;14.660;2022-09-29T03:20:55;96326.72;;;7.55;69.53
71915;BME280;60387;49.994;14.660;2022-09-29T03:23:28;96331.00;;;7.56;69.73
71915;BME280;60387;49.994;14.660;2022-09-29T03:26:01;96318.66;;;7.55;69.44
71915;BME280;60387;49.994;14.660;2022-09-29T03:28:34;96309.47;;;7.56;69.40
71915;BME280;60387;49.994;14.660;2022-09-29T03:31:08;96319.28;;;7.60;69.18
71915;BME280;60387;49.994;14.660;2022-09-29T03:33:42;96321.22;;;7.60;69.80
71915;BME280;60387;49.994;14.660;2022-09-29T03:36:15;96319.13;;;7.57;70.16
71915;BME280;60387;49.994;14.660;2022-09-29T03:38:48;96321.22;;;7.60;70.45
71915;BME280;60387;49.994;14.660;2022-09-29T03:41:22;96325.47;;;7.61;69.82
71915;BME280;60387;49.994;14.660;2022-09-29T03:43:55;96327.38;;;7.60;69.57
71915;BME280;60387;49.994;14.660;2022-09-29T03:46:28;96321.97;;;7.60;69.68
71915;BME280;60387;49.994;14.660;2022-09-29T03:49:01;96317.22;;;7.57;69.81
71915;BME280;60387;49.994;14.660;2022-09-29T03:51:35;96330.06;;;7.60;69.56
71915;BME280;60387;49.994;14.660;2022-09-29T03:54:08;96328.94;;;7.61;70.03
71915;BME280;60387;49.994;14.660;2022-09-29T03:56:42;96334.97;;;7.58;69.51
71915;BME280;60387;49.994;14.660;2022-09-29T03:59:15;96329.28;;;7.60;69.25
71915;BME280;60387;49.994;14.660;2022-09-29T04:01:48;96334.03;;;7.63;69.40
71915;BME280;60387;49.994;14.660;2022-09-29T04:04:22;96323.09;;;7.59;68.99
71915;BME280;60387;49.994;14.660;2022-09-29T04:06:55;96346.09;;;7.65;68.90
71915;BME280;60387;49.994;14.660;2022-09-29T04:09:28;96346.88;;;7.66;68.91
71915;BME280;60387;49.994;14.660;2022-09-29T04:12:01;96340.41;;;7.67;69.16
71915;BME280;60387;49.994;14.660;2022-09-29T04:14:35;96322.16;;;7.55;68.94
71915;BME280;60387;49.994;14.660;2022-09-29T04:17:08;96325.94;;;7.63;69.23
71915;BME280;60387;49.994;14.660;2022-09-29T04:19:41;96334.66;;;7.68;69.06
71915;BME280;60387;49.994;14.660;2022-09-29T04:22:15;96338.00;;;7.65;68.77
71915;BME280;60387;49.994;14.660;2022-09-29T04:24:48;96339.28;;;7.68;68.73
71915;BME280;60387;49.994;14.660;2022-09-29T04:27:21;96339.28;;;7.68;68.99
71915;BME280;60387;49.994;14.660;2022-09-29T04:29:55;96341.66;;;7.69;68.95
71915;BME280;60387;49.994;14.660;2022-09-29T04:32:28;96339.59;;;7.66;68.75
71915;BME280;60387;49.994;14.660;2022-09-29T04:35:02;96342.75;;;7.68;68.64
71915;BME280;60387;49.994;14.660;2022-09-29T04:37:36;96346.09;;;7.65;68.48
71915;BME280;60387;49.994;14.660;2022-09-29T04:40:09;96349.41;;;7.62;68.78
71915;BME280;60387;49.994;14.660;2022-09-29T04:42:42;96350.50;;;7.61;68.73
71915;BME280;60387;49.994;14.660;2022-09-29T04:45:15;96348.59;;;7.53;68.92
71915;BME280;60387;49.994;14.660;2022-09-29T04:47:49;96347.19;;;7.56;69.16
71915;BME280;60387;49.994;14.660;2022-09-29T04:50:23;96347.00;;;7.52;69.28
71915;BME280;60387;49.994;14.660;2022-09-29T04:52:56;96345.44;;;7.51;70.16
71915;BME280;60387;49.994;14.660;2022-09-29T04:55:29;96349.22;;;7.50;70.29
71915;BME280;60387;49.994;14.660;2022-09-29T04:58:03;96359.22;;;7.50;70.39
71915;BME280;60387;49.994;14.660;2022-09-29T05:00:36;96362.53;;;7.47;69.61
71915;BME280;60387;49.994;14.660;2022-09-29T05:03:09;96369.03;;;7.46;70.33
71915;BME280;60387;49.994;14.660;2022-09-29T05:05:43;96365.06;;;7.43;70.45
71915;BME280;60387;49.994;14.660;2022-09-29T05:08:16;96361.91;;;7.41;70.37
71915;BME280;60387;49.994;14.660;2022-09-29T05:10:49;96363.47;;;7.42;70.16
71915;BME280;60387;49.994;14.660;2022-09-29T05:13:23;96362.69;;;7.42;70.29
71915;BME280;60387;49.994;14.660;2022-09-29T05:15:56;96364.13;;;7.39;69.83
71915;BME280;60387;49.994;14.660;2022-09-29T05:18:30;96372.03;;;7.44;69.64
71915;BME280;60387;49.994;14.660;2022-09-29T05:21:07;96366.66;;;7.44;69.57
71915;BME280;60387;49.994;14.660;2022-09-29T05:23:41;96369.03;;;7.46;69.64
71915;BME280;60387;49.994;14.660;2022-09-29T05:26:14;96365.69;;;7.49;69.70
71915;BME280;60387;49.994;14.660;2022-09-29T05:28:48;96362.69;;;7.50;69.38
71915;BME280;60387;49.994;14.660;2022-09-29T05:31:21;96371.75;;;7.54;69.73
71915;BME280;60387;49.994;14.660;2022-09-29T05:33:55;96367.31;;;7.58;69.49
71915;BME280;60387;49.994;14.660;2022-09-29T05:36:28;96357.66;;;7.57;69.50
71915;BME280;60387;49.994;14.660;2022-09-29T05:39:02;96368.94;;;7.68;69.63
71915;BME280;60387;49.994;14.660;2022-09-29T05:41:35;96368.91;;;7.76;69.61
71915;BME280;60387;49.994;14.660;2022-09-29T05:44:08;96367.34;;;7.84;69.26
71915;BME280;60387;49.994;14.660;2022-09-29T05:46:42;96371.00;;;7.88;69.45
71915;BME280;60387;49.994;14.660;2022-09-29T05:49:15;96372.09;;;7.95;69.53
71915;BME280;60387;49.994;14.660;2022-09-29T05:51:48;96365.13;;;8.03;69.20
71915;BME280;60387;49.994;14.660;2022-09-29T05:54:21;96372.09;;;8.12;69.14
71915;BME280;60387;49.994;14.660;2022-09-29T05:56:55;96382.13;;;8.20;68.98
71915;BME280;60387;49.994;14.660;2022-09-29T05:59:28;96383.56;;;8.26;69.35
71915;BME280;60387;49.994;14.660;2022-09-29T06:02:01;96382.44;;;8.36;69.00
71915;BME280;60387;49.994;14.660;2022-09-29T06:04:34;96386.25;;;8.43;68.97
71915;BME280;60387;49.994;14.660;2022-09-29T06:07:08;96381.63;;;8.52;69.13
71915;BME280;60387;49.994;14.660;2022-09-29T06:09:41;96386.38;;;8.64;68.95
71915;BME280;60387;49.994;14.660;2022-09-29T06:12:14;96381.44;;;8.74;68.98
71915;BME280;60387;49.994;14.660;2022-09-29T06:14:47;96393.47;;;8.85;68.75
71915;BME280;60387;49.994;14.660;2022-09-29T06:17:21;96395.94;;;8.99;68.92
71915;BME280;60387;49.994;14.660;2022-09-29T06:19:54;96386.38;;;9.10;69.01
71915;BME280;60387;49.994;14.660;2022-09-29T06:22:27;96391.91;;;9.22;68.69
71915;BME280;60387;49.994;14.660;2022-09-29T06:25:00;96398.97;;;9.35;68.34
71915;BME280;60387;49.994;14.660;2022-09-29T06:27:34;96396.84;;;9.48;68.66
71915;BME280;60387;49.994;14.660;2022-09-29T06:30:07;96389.19;;;9.59;68.91
71915;BME280;60387;49.994;14.660;2022-09-29T06:32:41;96394.97;;;9.69;68.41
71915;BME280;60387;49.994;14.660;2022-09-29T06:35:14;96396.84;;;9.77;68.34
71915;BME280;60387;49.994;14.660;2022-09-29T06:37:47;96396.78;;;9.86;68.44
71915;BME280;60387;49.994;14.660;2022-09-29T06:40:21;96394.16;;;9.98;68.29
71915;BME280;60387;49.994;14.660;2022-09-29T06:42:54;96403.63;;;10.12;68.34
71915;BME280;60387;49.994;14.660;2022-09-29T06:45:27;96396.34;;;10.25;68.25
71915;BME280;60387;49.994;14.660;2022-09-29T06:48:01;96394.59;;;10.29;67.76
71915;BME280;60387;49.994;14.660;2022-09-29T06:50:34;96395.63;;;10.36;67.88
71915;BME280;60387;49.994;14.660;2022-09-29T06:53:07;96400.84;;;10.41;67.24
71915;BME280;60387;49.994;14.660;2022-09-29T06:55:40;96396.34;;;10.45;67.11
71915;BME280;60387;49.994;14.660;2022-09-29T06:58:14;96393.09;;;10.52;67.24
71915;BME280;60387;49.994;14.660;2022-09-29T07:00:47;96396.53;;;10.61;67.67
71915;BME280;60387;49.994;14.660;2022-09-29T07:03:21;96405.38;;;10.70;67.43
71915;BME280;60387;49.994;14.660;2022-09-29T07:05:54;96401.66;;;10.74;67.16
71915;BME280;60387;49.994;14.660;2022-09-29T07:08:27;96404.28;;;10.83;67.56
71915;BME280;60387;49.994;14.660;2022-09-29T07:11:01;96396.84;;;10.92;67.29
71915;BME280;60387;49.994;14.660;2022-09-29T07:13:35;96400.50;;;11.08;67.10
71915;BME280;60387;49.994;14.660;2022-09-29T07:16:10;96400.88;;;11.30;67.46
71915;BME280;60387;49.994;14.660;2022-09-29T07:18:44;96398.50;;;11.53;66.67
71915;BME280;60387;49.994;14.660;2022-09-29T07:21:18;96404.19;;;11.60;66.66
71915;BME280;60387;49.994;14.660;2022-09-29T07:23:51;96407.91;;;11.67;66.59
71915;BME280;60387;49.994;14.660;2022-09-29T07:26:24;96415.06;;;11.72;66.30
71915;BME280;60387;49.994;14.660;2022-09-29T07:28:58;96401.56;;;11.75;66.33
71915;BME280;60387;49.994;14.660;2022-09-29T07:31:31;96408.47;;;11.85;66.25
71915;BME280;60387;49.994;14.660;2022-09-29T07:34:04;96406.88;;;11.96;66.54
71915;BME280;60387;49.994;14.660;2022-09-29T07:36:38;96412.03;;;12.13;66.25
71915;BME280;60387;49.994;14.660;2022-09-29T07:39:11;96404.88;;;12.32;66.12
71915;BME280;60387;49.994;14.660;2022-09-29T07:41:44;96398.41;;;12.49;65.78
71915;BME280;60387;49.994;14.660;2022-09-29T07:44:17;96405.78;;;12.64;65.70
71915;BME280;60387;49.994;14.660;2022-09-29T07:46:51;96401.78;;;12.73;65.61
71915;BME280;60387;49.994;14.660;2022-09-29T07:49:24;96415.78;;;12.87;65.12
71915;BME280;60387;49.994;14.660;2022-09-29T07:51:57;96422.41;;;13.01;65.30
71915;BME280;60387;49.994;14.660;2022-09-29T07:54:30;96426.81;;;13.21;65.62
71915;BME280;60387;49.994;14.660;2022-09-29T07:57:04;96414.13;;;13.41;64.88
71915;BME280;60387;49.994;14.660;2022-09-29T07:59:37;96418.31;;;13.54;64.69
71915;BME280;60387;49.994;14.660;2022-09-29T08:02:10;96430.81;;;13.70;63.68
71915;BME280;60387;49.994;14.660;2022-09-29T08:04:43;96439.28;;;13.84;63.73
71915;BME280;60387;49.994;14.660;2022-09-29T08:07:17;96434.28;;;14.02;63.92
71915;BME280;60387;49.994;14.660;2022-09-29T08:09:50;96434.34;;;14.21;63.45
71915;BME280;60387;49.994;14.660;2022-09-29T08:12:23;96434.69;;;14.35;61.51
71915;BME280;60387;49.994;14.660;2022-09-29T08:14:57;96441.84;;;14.43;61.47
71915;BME280;60387;49.994;14.660;2022-09-29T08:17:30;96434.69;;;14.54;61.78
71915;BME280;60387;49.994;14.660;2022-09-29T08:20:03;96439.66;;;14.67;61.70
71915;BME280;60387;49.994;14.660;2022-09-29T08:22:37;96441.88;;;14.81;61.49
71915;BME280;60387;49.994;14.660;2022-09-29T08:25:10;96434.00;;;14.95;60.32
71915;BME280;60387;49.994;14.660;2022-09-29T08:27:43;96439.84;;;15.16;59.57
71915;BME280;60387;49.994;14.660;2022-09-29T08:30:17;96436.75;;;15.36;58.82
71915;BME280;60387;49.994;14.660;2022-09-29T08:32:52;96436.13;;;15.65;59.25
71915;BME280;60387;49.994;14.660;2022-09-29T08:35:25;96443.59;;;15.94;59.76
71915;BME280;60387;49.994;14.660;2022-09-29T08:37:59;96440.38;;;16.11;59.15
71915;BME280;60387;49.994;14.660;2022-09-29T08:40:32;96454.06;;;16.37;58.56
71915;BME280;60387;49.994;14.660;2022-09-29T08:46:05;96448.97;;;16.94;57.85
71915;BME280;60387;49.994;14.660;2022-09-29T08:48:42;96456.56;;;17.08;55.52
71915;BME280;60387;49.994;14.660;2022-09-29T08:51:33;96460.13;;;17.12;55.74
71915;BME280;60387;49.994;14.660;2022-09-29T08:54:24;96462.50;;;17.13;56.33
71915;BME280;60387;49.994;14.660;2022-09-29T08:57:00;96457.88;;;17.21;55.83
71915;BME280;60387;49.994;14.660;2022-09-29T08:59:33;96461.94;;;17.34;53.07
71915;BME280;60387;49.994;14.660;2022-09-29T09:02:39;96471.91;;;17.49;52.90
71915;BME280;60387;49.994;14.660;2022-09-29T09:05:46;96476.00;;;17.65;49.22
71915;BME280;60387;49.994;14.660;2022-09-29T09:11:35;96484.53;;;17.97;52.09
71915;BME280;60387;49.994;14.660;2022-09-29T09:20:35;96486.84;;;19.03;46.98
71915;BME280;60387;49.994;14.660;2022-09-29T09:25:59;96494.81;;;19.25;46.12
71915;BME280;60387;49.994;14.660;2022-09-29T09:31:26;96485.94;;;19.80;46.46
71915;BME280;60387;49.994;14.660;2022-09-29T09:34:06;96480.09;;;20.06;48.22
71915;BME280;60387;49.994;14.660;2022-09-29T09:39:34;96488.34;;;20.55;46.80
71915;BME280;60387;49.994;14.660;2022-09-29T09:42:16;96487.16;;;20.81;43.33
71915;BME280;60387;49.994;14.660;2022-09-29T09:44:57;96490.31;;;20.90;43.12
71915;BME280;60387;49.994;14.660;2022-09-29T09:47:36;96482.03;;;20.79;45.52
71915;BME280;60387;49.994;14.660;2022-09-29T09:50:14;96495.81;;;20.93;46.39
71915;BME280;60387;49.994;14.660;2022-09-29T09:53:04;96500.50;;;20.93;43.37
71915;BME280;60387;49.994;14.660;2022-09-29T09:55:42;96497.38;;;20.98;44.98
71915;BME280;60387;49.994;14.660;2022-09-29T10:01:16;96508.28;;;21.26;42.95
71915;BME280;60387;49.994;14.660;2022-09-29T10:03:49;96502.72;;;21.43;43.97
71915;BME280;60387;49.994;14.660;2022-09-29T10:06:23;96506.19;;;21.58;44.51
71915;BME280;60387;49.994;14.660;2022-09-29T10:08:56;96497.13;;;21.57;43.73
71915;BME280;60387;49.994;14.660;2022-09-29T10:11:30;96494.03;;;21.45;45.90
71915;BME280;60387;49.994;14.660;2022-09-29T10:14:31;96507.44;;;21.39;45.07
71915;BME280;60387;49.994;14.660;2022-09-29T10:17:06;96510.59;;;21.38;44.89
71915;BME280;60387;49.994;14.660;2022-09-29T10:19:57;96503.59;;;21.12;45.65
71915;BME280;60387;49.994;14.660;2022-09-29T10:22:31;96509.88;;;21.20;45.73
71915;BME280;60387;49.994;14.660;2022-09-29T10:27:49;96507.03;;;21.48;45.15
71915;BME280;60387;49.994;14.660;2022-09-29T10:30:30;96509.38;;;21.42;44.61
71915;BME280;60387;49.994;14.660;2022-09-29T10:33:13;96504.69;;;21.43;44.60
71915;BME280;60387;49.994;14.660;2022-09-29T10:35:48;96504.19;;;21.58;44.94
71915;BME280;60387;49.994;14.660;2022-09-29T10:38:24;96502.13;;;21.83;44.30
71915;BME280;60387;49.994;14.660;2022-09-29T10:41:01;96497.59;;;22.14;44.78
71915;BME280;60387;49.994;14.660;2022-09-29T10:43:38;96490.69;;;22.39;45.59
71915;BME280;60387;49.994;14.660;2022-09-29T10:49:21;96496.91;;;22.94;37.72
71915;BME280;60387;49.994;14.660;2022-09-29T10:52:04;96501.50;;;23.08;40.14
71915;BME280;60387;49.994;14.660;2022-09-29T10:54:52;96507.19;;;23.31;38.97
71915;BME280;60387;49.994;14.660;2022-09-29T10:57:27;96511.03;;;23.40;38.03
71915;BME280;60387;49.994;14.660;2022-09-29T11:00:03;96520.19;;;23.34;38.08
71915;BME280;60387;49.994;14.660;2022-09-29T11:02:38;96521.16;;;23.13;37.36
71915;BME280;60387;49.994;14.660;2022-09-29T11:05:19;96512.47;;;22.78;40.63
71915;BME280;60387;49.994;14.660;2022-09-29T11:07:53;96517.06;;;22.51;40.34
71915;BME280;60387;49.994;14.660;2022-09-29T11:10:37;96514.84;;;22.28;40.77
71915;BME280;60387;49.994;14.660;2022-09-29T11:16:50;96517.25;;;22.19;40.92
71915;BME280;60387;49.994;14.660;2022-09-29T11:24:52;96512.97;;;23.06;40.10
71915;BME280;60387;49.994;14.660;2022-09-29T11:27:48;96516.66;;;22.93;39.59
71915;BME280;60387;49.994;14.660;2022-09-29T11:39:50;96518.47;;;21.39;39.08
71915;BME280;60387;49.994;14.660;2022-09-29T11:45:21;96508.41;;;20.59;39.55
71915;BME280;60387;49.994;14.660;2022-09-29T11:56:43;96509.81;;;19.45;41.67
71915;BME280;60387;49.994;14.660;2022-09-29T11:59:57;96504.16;;;19.14;41.79
71915;BME280;60387;49.994;14.660;2022-09-29T12:05:23;96495.06;;;19.03;42.15
71915;BME280;60387;49.994;14.660;2022-09-29T12:14:00;96507.81;;;19.32;39.96
71915;BME280;60387;49.994;14.660;2022-09-29T12:16:38;96517.53;;;19.19;40.89
71915;BME280;60387;49.994;14.660;2022-09-29T12:19:17;96506.06;;;19.03;41.45
71915;BME280;60387;49.994;14.660;2022-09-29T12:21:54;96500.53;;;18.92;41.09
71915;BME280;60387;49.994;14.660;2022-09-29T12:25:09;96497.72;;;18.82;42.67
71915;BME280;60387;49.994;14.660;2022-09-29T12:27:46;96493.88;;;18.93;42.44
71915;BME280;60387;49.994;14.660;2022-09-29T12:30:26;96492.78;;;19.15;42.91
71915;BME280;60387;49.994;14.660;2022-09-29T12:36:24;96493.28;;;19.35;41.53
71915;BME280;60387;49.994;14.660;2022-09-29T12:39:04;96499.19;;;19.40;41.23
71915;BME280;60387;49.994;14.660;2022-09-29T12:41:48;96491.00;;;19.51;41.46
71915;BME280;60387;49.994;14.660;2022-09-29T12:44:33;96499.66;;;19.60;41.13
71915;BME280;60387;49.994;14.660;2022-09-29T12:52:32;96501.31;;;20.02;41.10
71915;BME280;60387;49.994;14.660;2022-09-29T12:55:17;96502.13;;;20.31;40.98
71915;BME280;60387;49.994;14.660;2022-09-29T12:57:53;96500.53;;;20.51;40.63
71915;BME280;60387;49.994;14.660;2022-09-29T13:00:30;96505.25;;;20.61;38.33
71915;BME280;60387;49.994;14.660;2022-09-29T13:03:33;96502.09;;;20.62;39.41
71915;BME280;60387;49.994;14.660;2022-09-29T13:06:31;96499.75;;;20.71;38.50
71915;BME280;60387;49.994;14.660;2022-09-29T13:12:02;96497.75;;;20.89;39.53
71915;BME280;60387;49.994;14.660;2022-09-29T13:28:48;96481.66;;;19.97;37.78
71915;BME280;60387;49.994;14.660;2022-09-29T13:31:25;96488.72;;;19.94;38.79
71915;BME280;60387;49.994;14.660;2022-09-29T13:34:01;96497.34;;;19.83;37.96
71915;BME280;60387;49.994;14.660;2022-09-29T13:36:38;96501.25;;;19.75;38.37
71915;BME280;60387;49.994;14.660;2022-09-29T13:39:24;96496.13;;;19.56;38.85
71915;BME280;60387;49.994;14.660;2022-09-29T13:47:57;96501.09;;;19.26;39.23
71915;BME280;60387;49.994;14.660;2022-09-29T13:50:50;96493.91;;;19.07;38.24
71915;BME280;60387;49.994;14.660;2022-09-29T13:53:26;96495.72;;;18.79;39.44
71915;BME280;60387;49.994;14.660;2022-09-29T13:58:38;96496.25;;;18.41;40.47
71915;BME280;60387;49.994;14.660;2022-09-29T14:01:36;96490.13;;;18.14;40.31
71915;BME280;60387;49.994;14.660;2022-09-29T14:07:03;96498.38;;;17.71;42.38
71915;BME280;60387;49.994;14.660;2022-09-29T14:09:39;96498.63;;;17.59;42.49
71915;BME280;60387;49.994;14.660;2022-09-29T14:12:21;96500.81;;;17.43;42.53
71915;BME280;60387;49.994;14.660;2022-09-29T14:14:58;96519.13;;;17.39;43.09
71915;BME280;60387;49.994;14.660;2022-09-29T14:17:35;96522.09;;;17.27;43.47
71915;BME280;60387;49.994;14.660;2022-09-29T14:20:20;96526.31;;;17.21;44.07
71915;BME280;60387;49.994;14.660;2022-09-29T14:23:05;96521.25;;;17.23;43.75
71915;BME280;60387;49.994;14.660;2022-09-29T14:28:16;96526.06;;;17.33;43.92
71915;BME280;60387;49.994;14.660;2022-09-29T14:30:54;96510.91;;;17.39;43.92
71915;BME280;60387;49.994;14.660;2022-09-29T14:33:38;96527.84;;;17.48;43.94
71915;BME280;60387;49.994;14.660;2022-09-29T14:36:15;96520.38;;;17.45;43.18
71915;BME280;60387;49.994;14.660;2022-09-29T14:38:53;96525.50;;;17.50;43.25
71915;BME280;60387;49.994;14.660;2022-09-29T14:41:29;96530.63;;;17.51;43.38
71915;BME280;60387;49.994;14.660;2022-09-29T14:44:11;96531.75;;;17.47;43.19
71915;BME280;60387;49.994;14.660;2022-09-29T14:58:20;96544.72;;;17.24;43.59
71915;BME280;60387;49.994;14.660;2022-09-29T15:01:24;96559.97;;;17.25;42.93
71915;BME280;60387;49.994;14.660;2022-09-29T15:04:10;96545.88;;;17.23;43.86
71915;BME280;60387;49.994;14.660;2022-09-29T15:06:53;96540.75;;;17.18;43.58
71915;BME280;60387;49.994;14.660;2022-09-29T15:09:26;96530.38;;;17.01;43.67
71915;BME280;60387;49.994;14.660;2022-09-29T15:11:59;96543.09;;;16.90;43.67
71915;BME280;60387;49.994;14.660;2022-09-29T15:14:33;96550.25;;;16.72;44.14
71915;BME280;60387;49.994;14.660;2022-09-29T15:25:24;96552.56;;;16.44;45.24
71915;BME280;60387;49.994;14.660;2022-09-29T15:28:03;96558.38;;;16.42;45.40
71915;BME280;60387;49.994;14.660;2022-09-29T15:30:37;96557.69;;;16.45;45.69
71915;BME280;60387;49.994;14.660;2022-09-29T15:33:18;96564.72;;;16.46;45.48
71915;BME280;60387;49.994;14.660;2022-09-29T15:35:58;96572.84;;;16.43;46.05
71915;BME280;60387;49.994;14.660;2022-09-29T15:38:39;96573.16;;;16.38;46.04
71915;BME280;60387;49.994;14.660;2022-09-29T15:41:16;96574.97;;;16.30;46.12
71915;BME280;60387;49.994;14.660;2022-09-29T15:43:56;96574.22;;;16.33;46.05
71915;BME280;60387;49.994;14.660;2022-09-29T15:49:19;96584.25;;;16.26;46.43
71915;BME280;60387;49.994;14.660;2022-09-29T15:54:38;96591.16;;;16.20;46.77
71915;BME280;60387;49.994;14.660;2022-09-29T16:05:35;96606.81;;;16.01;47.29
71915;BME280;60387;49.994;14.660;2022-09-29T16:08:19;96615.75;;;15.98;47.52
71915;BME280;60387;49.994;14.660;2022-09-29T16:10:55;96617.09;;;15.88;47.50
71915;BME280;60387;49.994;14.660;2022-09-29T16:13:35;96622.16;;;15.86;47.57
71915;BME280;60387;49.994;14.660;2022-09-29T16:16:10;96635.38;;;15.84;48.03
71915;BME280;60387;49.994;14.660;2022-09-29T16:18:47;96625.81;;;15.75;47.98
71915;BME280;60387;49.994;14.660;2022-09-29T16:21:22;96641.28;;;15.67;47.98
71915;BME280;60387;49.994;14.660;2022-09-29T16:24:12;96626.34;;;15.61;48.40